Аэропорт: Талаги. Архангельск

ICAO: ULAA

METAR:
2020-10-19 14:30:00
ULAA 191430Z 06004MPS 2400 -SHSN OVC004CB M01/M01 Q0999 R08/590534 NOSIG RMK QBB120 QFE749/0998
METAR:
2020-10-19 11:08:00
TAF AMD ULAA 191108Z 1911/2012 06004MPS 2000 SHSN BKN004 BKN016CB TEMPO 1912/2006 04004G12MPS 0500 +SHSN BKN003 BKN011CB FM200600 01003MPS 8000 BKN016CB TEMPO 2006/2012 35004G11MPS 1000 SHSN BKN003 BKN010CB